sensor_id;sensor_type;location;lat;lon;timestamp;temperature;humidity
14946;DHT22;7567;50.916;6.900;2023-02-13T00:01:32;8.80;99.90
14946;DHT22;7567;50.916;6.900;2023-02-13T00:03:59;8.80;99.90
14946;DHT22;7567;50.916;6.900;2023-02-13T00:06:25;8.80;99.90
14946;DHT22;7567;50.916;6.900;2023-02-13T00:08:51;8.80;99.90
14946;DHT22;7567;50.916;6.900;2023-02-13T00:11:17;8.80;99.90
14946;DHT22;7567;50.916;6.900;2023-02-13T00:13:45;8.80;99.90
14946;DHT22;7567;50.916;6.900;2023-02-13T00:16:11;8.80;99.90
14946;DHT22;7567;50.916;6.900;2023-02-13T00:18:37;8.80;99.90
14946;DHT22;7567;50.916;6.900;2023-02-13T00:21:06;8.80;99.90
14946;DHT22;7567;50.916;6.900;2023-02-13T00:23:33;8.80;99.90
14946;DHT22;7567;50.916;6.900;2023-02-13T00:26:00;8.80;99.90
14946;DHT22;7567;50.916;6.900;2023-02-13T00:28:29;8.70;99.90
14946;DHT22;7567;50.916;6.900;2023-02-13T00:31:05;8.80;99.90
14946;DHT22;7567;50.916;6.900;2023-02-13T00:33:31;8.80;99.90
14946;DHT22;7567;50.916;6.900;2023-02-13T00:36:20;8.80;99.90
14946;DHT22;7567;50.916;6.900;2023-02-13T00:38:47;8.80;99.90
14946;DHT22;7567;50.916;6.900;2023-02-13T00:41:13;8.80;99.90
14946;DHT22;7567;50.916;6.900;2023-02-13T00:43:41;8.80;99.90
14946;DHT22;7567;50.916;6.900;2023-02-13T00:46:07;8.80;99.90
14946;DHT22;7567;50.916;6.900;2023-02-13T00:48:33;8.70;99.90
14946;DHT22;7567;50.916;6.900;2023-02-13T00:51:00;8.70;99.90
14946;DHT22;7567;50.916;6.900;2023-02-13T00:53:26;8.80;99.90
14946;DHT22;7567;50.916;6.900;2023-02-13T00:55:52;8.70;99.90
14946;DHT22;7567;50.916;6.900;2023-02-13T00:58:19;8.80;99.90
14946;DHT22;7567;50.916;6.900;2023-02-13T01:00:45;8.80;99.90
14946;DHT22;7567;50.916;6.900;2023-02-13T01:03:13;8.70;99.90
14946;DHT22;7567;50.916;6.900;2023-02-13T01:05:39;8.70;99.90
14946;DHT22;7567;50.916;6.900;2023-02-13T01:08:05;8.80;99.90
14946;DHT22;7567;50.916;6.900;2023-02-13T01:10:31;8.70;99.90
14946;DHT22;7567;50.916;6.900;2023-02-13T01:12:57;8.80;99.90
14946;DHT22;7567;50.916;6.900;2023-02-13T01:15:23;8.80;99.90
14946;DHT22;7567;50.916;6.900;2023-02-13T01:17:51;8.70;99.90
14946;DHT22;7567;50.916;6.900;2023-02-13T01:20:17;8.70;99.90
14946;DHT22;7567;50.916;6.900;2023-02-13T01:22:43;8.60;99.90
14946;DHT22;7567;50.916;6.900;2023-02-13T01:25:09;8.70;99.90
14946;DHT22;7567;50.916;6.900;2023-02-13T01:27:35;8.60;99.90
14946;DHT22;7567;50.916;6.900;2023-02-13T01:30:04;8.60;99.90
14946;DHT22;7567;50.916;6.900;2023-02-13T01:32:30;8.60;99.90
14946;DHT22;7567;50.916;6.900;2023-02-13T01:34:56;8.60;99.90
14946;DHT22;7567;50.916;6.900;2023-02-13T01:37:21;8.60;99.90
14946;DHT22;7567;50.916;6.900;2023-02-13T01:39:47;8.60;99.90
14946;DHT22;7567;50.916;6.900;2023-02-13T01:42:25;8.60;99.90
14946;DHT22;7567;50.916;6.900;2023-02-13T01:45:00;8.60;99.90
14946;DHT22;7567;50.916;6.900;2023-02-13T01:50:19;8.60;99.90
14946;DHT22;7567;50.916;6.900;2023-02-13T01:52:56;8.60;99.90
14946;DHT22;7567;50.916;6.900;2023-02-13T01:55:25;8.60;99.90
14946;DHT22;7567;50.916;6.900;2023-02-13T01:57:55;8.50;99.90
14946;DHT22;7567;50.916;6.900;2023-02-13T02:00:23;8.60;99.90
14946;DHT22;7567;50.916;6.900;2023-02-13T02:02:54;8.60;99.90
14946;DHT22;7567;50.916;6.900;2023-02-13T02:05:21;8.60;99.90
14946;DHT22;7567;50.916;6.900;2023-02-13T02:07:49;8.60;99.90
14946;DHT22;7567;50.916;6.900;2023-02-13T02:10:17;8.60;99.90
14946;DHT22;7567;50.916;6.900;2023-02-13T02:12:59;8.60;99.90
14946;DHT22;7567;50.916;6.900;2023-02-13T02:15:27;8.60;99.90
14946;DHT22;7567;50.916;6.900;2023-02-13T02:17:53;8.60;99.90
14946;DHT22;7567;50.916;6.900;2023-02-13T02:25:28;8.60;99.90
14946;DHT22;7567;50.916;6.900;2023-02-13T02:48:08;8.50;99.90
14946;DHT22;7567;50.916;6.900;2023-02-13T02:51:20;8.50;99.90
14946;DHT22;7567;50.916;6.900;2023-02-13T02:54:03;8.50;99.90
14946;DHT22;7567;50.916;6.900;2023-02-13T02:56:55;8.50;99.90
14946;DHT22;7567;50.916;6.900;2023-02-13T02:59:22;8.50;99.90
14946;DHT22;7567;50.916;6.900;2023-02-13T03:02:09;8.50;99.90
14946;DHT22;7567;50.916;6.900;2023-02-13T03:04:56;8.50;99.90
14946;DHT22;7567;50.916;6.900;2023-02-13T03:07:42;8.40;99.90
14946;DHT22;7567;50.916;6.900;2023-02-13T03:10:19;8.50;99.90
14946;DHT22;7567;50.916;6.900;2023-02-13T03:13:34;8.50;99.90
14946;DHT22;7567;50.916;6.900;2023-02-13T03:16:01;8.40;99.90
14946;DHT22;7567;50.916;6.900;2023-02-13T03:18:50;8.50;99.90
14946;DHT22;7567;50.916;6.900;2023-02-13T03:21:47;8.50;99.90
14946;DHT22;7567;50.916;6.900;2023-02-13T03:29:43;8.40;99.90
14946;DHT22;7567;50.916;6.900;2023-02-13T03:35:46;8.40;99.90
14946;DHT22;7567;50.916;6.900;2023-02-13T03:38:58;8.40;99.90
14946;DHT22;7567;50.916;6.900;2023-02-13T03:44:12;8.30;99.90
14946;DHT22;7567;50.916;6.900;2023-02-13T03:46:44;8.30;99.90
14946;DHT22;7567;50.916;6.900;2023-02-13T03:49:36;8.30;99.90
14946;DHT22;7567;50.916;6.900;2023-02-13T03:52:44;8.30;99.90
14946;DHT22;7567;50.916;6.900;2023-02-13T03:58:14;8.30;99.90
14946;DHT22;7567;50.916;6.900;2023-02-13T04:01:04;8.20;99.90
14946;DHT22;7567;50.916;6.900;2023-02-13T04:03:55;8.30;99.90
14946;DHT22;7567;50.916;6.900;2023-02-13T04:06:31;8.30;99.90
14946;DHT22;7567;50.916;6.900;2023-02-13T04:08:57;8.30;99.90
14946;DHT22;7567;50.916;6.900;2023-02-13T04:11:29;8.30;99.90
14946;DHT22;7567;50.916;6.900;2023-02-13T04:13:58;8.30;99.90
14946;DHT22;7567;50.916;6.900;2023-02-13T04:16:40;8.30;99.90
14946;DHT22;7567;50.916;6.900;2023-02-13T04:19:08;8.20;99.90
14946;DHT22;7567;50.916;6.900;2023-02-13T04:21:36;8.20;99.90
14946;DHT22;7567;50.916;6.900;2023-02-13T04:24:02;8.20;99.90
14946;DHT22;7567;50.916;6.900;2023-02-13T04:26:40;8.20;99.90
14946;DHT22;7567;50.916;6.900;2023-02-13T04:29:07;8.10;99.90
14946;DHT22;7567;50.916;6.900;2023-02-13T04:31:33;8.10;99.90
14946;DHT22;7567;50.916;6.900;2023-02-13T04:33:59;8.00;99.90
14946;DHT22;7567;50.916;6.900;2023-02-13T04:36:25;8.00;99.90
14946;DHT22;7567;50.916;6.900;2023-02-13T04:38:51;8.00;99.90
14946;DHT22;7567;50.916;6.900;2023-02-13T04:41:17;8.00;99.90
14946;DHT22;7567;50.916;6.900;2023-02-13T04:43:43;7.90;99.90
14946;DHT22;7567;50.916;6.900;2023-02-13T04:46:09;8.00;99.90
14946;DHT22;7567;50.916;6.900;2023-02-13T04:48:34;7.90;99.90
14946;DHT22;7567;50.916;6.900;2023-02-13T04:51:00;7.90;99.90
14946;DHT22;7567;50.916;6.900;2023-02-13T04:53:26;7.80;99.90
14946;DHT22;7567;50.916;6.900;2023-02-13T04:55:52;7.80;99.90
14946;DHT22;7567;50.916;6.900;2023-02-13T04:58:18;7.70;99.90
14946;DHT22;7567;50.916;6.900;2023-02-13T05:00:43;7.70;99.90
14946;DHT22;7567;50.916;6.900;2023-02-13T05:03:11;7.70;99.90
14946;DHT22;7567;50.916;6.900;2023-02-13T05:05:38;7.60;99.90
14946;DHT22;7567;50.916;6.900;2023-02-13T05:08:05;7.50;99.90
14946;DHT22;7567;50.916;6.900;2023-02-13T05:10:31;7.50;99.90
14946;DHT22;7567;50.916;6.900;2023-02-13T05:12:57;7.50;99.90
14946;DHT22;7567;50.916;6.900;2023-02-13T05:15:23;7.40;99.90
14946;DHT22;7567;50.916;6.900;2023-02-13T05:17:49;7.40;99.90
14946;DHT22;7567;50.916;6.900;2023-02-13T05:20:16;7.40;99.90
14946;DHT22;7567;50.916;6.900;2023-02-13T05:22:49;7.30;99.90
14946;DHT22;7567;50.916;6.900;2023-02-13T05:25:35;7.30;99.90
14946;DHT22;7567;50.916;6.900;2023-02-13T05:28:01;7.40;99.90
14946;DHT22;7567;50.916;6.900;2023-02-13T05:30:27;7.30;99.90
14946;DHT22;7567;50.916;6.900;2023-02-13T05:32:53;7.20;99.90
14946;DHT22;7567;50.916;6.900;2023-02-13T05:35:23;7.10;99.90
14946;DHT22;7567;50.916;6.900;2023-02-13T05:37:49;7.10;99.90
14946;DHT22;7567;50.916;6.900;2023-02-13T05:40:15;7.00;99.90
14946;DHT22;7567;50.916;6.900;2023-02-13T05:42:41;6.90;99.90
14946;DHT22;7567;50.916;6.900;2023-02-13T05:45:08;6.80;99.90
14946;DHT22;7567;50.916;6.900;2023-02-13T05:47:34;6.70;99.90
14946;DHT22;7567;50.916;6.900;2023-02-13T05:50:01;6.70;99.90
14946;DHT22;7567;50.916;6.900;2023-02-13T05:52:26;6.60;99.90
14946;DHT22;7567;50.916;6.900;2023-02-13T05:54:52;6.60;99.90
14946;DHT22;7567;50.916;6.900;2023-02-13T05:57:18;6.50;99.90
14946;DHT22;7567;50.916;6.900;2023-02-13T05:59:44;6.50;99.90
14946;DHT22;7567;50.916;6.900;2023-02-13T06:02:10;6.40;99.90
14946;DHT22;7567;50.916;6.900;2023-02-13T06:04:36;6.30;99.90
14946;DHT22;7567;50.916;6.900;2023-02-13T06:07:02;6.30;99.90
14946;DHT22;7567;50.916;6.900;2023-02-13T06:09:27;6.20;99.90
14946;DHT22;7567;50.916;6.900;2023-02-13T06:11:53;6.20;99.90
14946;DHT22;7567;50.916;6.900;2023-02-13T06:14:19;6.20;99.90
14946;DHT22;7567;50.916;6.900;2023-02-13T06:16:45;6.20;99.90
14946;DHT22;7567;50.916;6.900;2023-02-13T06:19:11;6.20;99.90
14946;DHT22;7567;50.916;6.900;2023-02-13T06:21:36;6.10;99.90
14946;DHT22;7567;50.916;6.900;2023-02-13T06:24:04;6.20;99.90
14946;DHT22;7567;50.916;6.900;2023-02-13T06:26:30;6.10;99.90
14946;DHT22;7567;50.916;6.900;2023-02-13T06:28:56;6.10;99.90
14946;DHT22;7567;50.916;6.900;2023-02-13T06:31:22;6.00;99.90
14946;DHT22;7567;50.916;6.900;2023-02-13T06:33:48;6.00;99.90
14946;DHT22;7567;50.916;6.900;2023-02-13T06:36:13;6.00;99.90
14946;DHT22;7567;50.916;6.900;2023-02-13T06:38:39;5.90;99.90
14946;DHT22;7567;50.916;6.900;2023-02-13T06:41:05;5.90;99.90
14946;DHT22;7567;50.916;6.900;2023-02-13T06:43:31;5.90;99.90
14946;DHT22;7567;50.916;6.900;2023-02-13T06:45:57;5.80;99.90
14946;DHT22;7567;50.916;6.900;2023-02-13T06:48:24;5.80;99.90
14946;DHT22;7567;50.916;6.900;2023-02-13T06:50:49;5.80;99.90
14946;DHT22;7567;50.916;6.900;2023-02-13T06:53:17;5.80;99.90
14946;DHT22;7567;50.916;6.900;2023-02-13T06:55:50;5.90;99.90
14946;DHT22;7567;50.916;6.900;2023-02-13T06:58:16;5.80;99.90
14946;DHT22;7567;50.916;6.900;2023-02-13T07:00:42;5.80;99.90
14946;DHT22;7567;50.916;6.900;2023-02-13T07:03:09;5.90;99.90
14946;DHT22;7567;50.916;6.900;2023-02-13T07:05:37;5.90;99.90
14946;DHT22;7567;50.916;6.900;2023-02-13T07:08:03;5.90;99.90
14946;DHT22;7567;50.916;6.900;2023-02-13T07:10:29;5.80;99.90
14946;DHT22;7567;50.916;6.900;2023-02-13T07:12:55;5.80;99.90
14946;DHT22;7567;50.916;6.900;2023-02-13T07:15:21;5.90;99.90
14946;DHT22;7567;50.916;6.900;2023-02-13T07:17:47;5.80;99.90
14946;DHT22;7567;50.916;6.900;2023-02-13T07:20:12;5.90;99.90
14946;DHT22;7567;50.916;6.900;2023-02-13T07:22:38;5.90;99.90
14946;DHT22;7567;50.916;6.900;2023-02-13T07:25:05;5.90;99.90
14946;DHT22;7567;50.916;6.900;2023-02-13T07:27:30;5.90;99.90
14946;DHT22;7567;50.916;6.900;2023-02-13T07:29:56;6.00;99.90
14946;DHT22;7567;50.916;6.900;2023-02-13T07:32:23;6.10;99.90
14946;DHT22;7567;50.916;6.900;2023-02-13T07:34:49;6.10;99.90
14946;DHT22;7567;50.916;6.900;2023-02-13T07:37:15;6.20;99.90
14946;DHT22;7567;50.916;6.900;2023-02-13T07:39:41;6.20;99.90
14946;DHT22;7567;50.916;6.900;2023-02-13T07:42:07;6.40;99.90
14946;DHT22;7567;50.916;6.900;2023-02-13T07:44:33;6.40;99.90
14946;DHT22;7567;50.916;6.900;2023-02-13T07:46:58;6.50;99.90
14946;DHT22;7567;50.916;6.900;2023-02-13T07:49:25;6.60;99.90
14946;DHT22;7567;50.916;6.900;2023-02-13T07:51:51;6.60;99.90
14946;DHT22;7567;50.916;6.900;2023-02-13T07:54:17;6.60;99.90
14946;DHT22;7567;50.916;6.900;2023-02-13T07:56:43;6.60;99.90
14946;DHT22;7567;50.916;6.900;2023-02-13T07:59:11;6.60;99.90
14946;DHT22;7567;50.916;6.900;2023-02-13T08:01:37;6.50;99.90
14946;DHT22;7567;50.916;6.900;2023-02-13T08:04:03;6.60;99.90
14946;DHT22;7567;50.916;6.900;2023-02-13T08:06:29;6.60;99.90
14946;DHT22;7567;50.916;6.900;2023-02-13T08:08:55;6.70;99.90
14946;DHT22;7567;50.916;6.900;2023-02-13T08:11:39;6.80;99.90
14946;DHT22;7567;50.916;6.900;2023-02-13T08:14:24;6.80;99.90
14946;DHT22;7567;50.916;6.900;2023-02-13T08:16:51;7.00;99.90
14946;DHT22;7567;50.916;6.900;2023-02-13T08:19:17;7.00;99.90
14946;DHT22;7567;50.916;6.900;2023-02-13T08:21:43;7.00;99.90
14946;DHT22;7567;50.916;6.900;2023-02-13T08:24:11;7.10;99.90
14946;DHT22;7567;50.916;6.900;2023-02-13T08:26:37;7.20;99.90
14946;DHT22;7567;50.916;6.900;2023-02-13T08:29:04;7.20;99.90
14946;DHT22;7567;50.916;6.900;2023-02-13T08:31:30;7.30;99.90
14946;DHT22;7567;50.916;6.900;2023-02-13T08:33:56;7.30;99.90
14946;DHT22;7567;50.916;6.900;2023-02-13T08:36:33;7.40;99.90
14946;DHT22;7567;50.916;6.900;2023-02-13T08:38:59;7.40;99.90
14946;DHT22;7567;50.916;6.900;2023-02-13T08:41:25;7.50;99.90
14946;DHT22;7567;50.916;6.900;2023-02-13T08:43:52;7.60;99.90
14946;DHT22;7567;50.916;6.900;2023-02-13T08:46:18;7.70;99.90
14946;DHT22;7567;50.916;6.900;2023-02-13T08:48:44;7.70;99.90
14946;DHT22;7567;50.916;6.900;2023-02-13T08:51:12;7.70;99.90
14946;DHT22;7567;50.916;6.900;2023-02-13T08:53:38;7.80;99.90
14946;DHT22;7567;50.916;6.900;2023-02-13T08:56:05;7.90;99.90
14946;DHT22;7567;50.916;6.900;2023-02-13T08:58:31;8.00;99.90
14946;DHT22;7567;50.916;6.900;2023-02-13T09:00:57;8.20;99.90
14946;DHT22;7567;50.916;6.900;2023-02-13T09:03:23;8.40;99.90
14946;DHT22;7567;50.916;6.900;2023-02-13T09:05:49;8.60;99.90
14946;DHT22;7567;50.916;6.900;2023-02-13T09:08:15;8.80;99.90
14946;DHT22;7567;50.916;6.900;2023-02-13T09:10:41;8.80;99.90
14946;DHT22;7567;50.916;6.900;2023-02-13T09:13:11;9.00;99.90
14946;DHT22;7567;50.916;6.900;2023-02-13T09:15:39;9.20;99.90
14946;DHT22;7567;50.916;6.900;2023-02-13T09:18:06;9.50;99.90
14946;DHT22;7567;50.916;6.900;2023-02-13T09:20:32;9.70;99.90
14946;DHT22;7567;50.916;6.900;2023-02-13T09:22:59;9.80;99.90
14946;DHT22;7567;50.916;6.900;2023-02-13T09:25:25;10.00;99.90
14946;DHT22;7567;50.916;6.900;2023-02-13T09:27:51;10.20;99.90
14946;DHT22;7567;50.916;6.900;2023-02-13T09:30:18;10.40;99.90
14946;DHT22;7567;50.916;6.900;2023-02-13T09:32:51;10.40;99.90
14946;DHT22;7567;50.916;6.900;2023-02-13T09:35:18;10.40;99.90
14946;DHT22;7567;50.916;6.900;2023-02-13T09:37:44;10.50;99.90
14946;DHT22;7567;50.916;6.900;2023-02-13T09:40:27;10.60;99.90
14946;DHT22;7567;50.916;6.900;2023-02-13T09:45:43;11.00;99.90
14946;DHT22;7567;50.916;6.900;2023-02-13T09:48:20;10.80;99.90
14946;DHT22;7567;50.916;6.900;2023-02-13T09:50:49;11.00;99.90
14946;DHT22;7567;50.916;6.900;2023-02-13T09:53:26;11.10;99.90
14946;DHT22;7567;50.916;6.900;2023-02-13T09:56:16;11.40;99.90
